Latest Weather Observations for Mawson*

IDT60801

Issued at 10:05 pm EST Tuesday 2 September 2014 (issued every 30 minutes, with the page automatically refreshed every 10 minutes)

About weather observations | Map of weather stations | Latest weather observations for ANT | Other Formats
Station Details ID: 300001 Name: MAWSON Lat: -67.60 Lon: 62.88 Height: 9.9 m
Data from the previous 72 hours. | See also: Recent months at Mawson*
Date/Time
EST
Temp
°C
App
Temp
°C
Dew
Point
Rel
Hum
%
Delta-T
°C
Wind Press
QNH
hPa
Press
MSL
hPa
Rain
since 9 am
mm
Dir
 
Spd
km/h
Gust
km/h
Spd
kts
Gust
kts
02/10:00pm -15.2 -24.6 -23.7 48 - SSE 30 37 16 20 991.9 992.1 -
02/09:30pm -14.5 -22.4 -23.5 46 - SE 22 35 12 19 991.9 - -
02/09:00pm -13.4 -23.8 -25.2 36 - SE 35 43 19 23 991.5 - -
02/08:30pm -14.4 -25.9 -24.2 43 - SE 41 46 22 25 991.4 - -
02/08:00pm -14.4 -25.9 -24.4 42 - SE 41 50 22 27 991.4 - -
02/07:30pm -14.1 -26.0 -24.4 41 - SE 43 54 23 29 991.2 - -
02/07:00pm -13.1 -24.2 -24.4 38 - SE 39 48 21 26 991.1 991.3 -
02/06:30pm -14.4 -26.3 -24.7 41 - SSE 43 48 23 26 990.8 - -
02/06:00pm -14.1 -23.1 -24.4 41 - SE 28 43 15 23 990.7 - -
02/05:30pm -14.0 -25.9 -24.9 39 - SE 43 50 23 27 990.6 - -
02/05:00pm -13.6 -25.7 -24.3 40 - SE 44 54 24 29 990.5 - -
02/04:30pm -14.0 -26.1 -26.1 35 - SE 44 57 24 31 990.1 - -
02/04:09pm -13.6 -25.1 -25.7 35 - SSE 41 50 22 27 990.5 - -
02/04:00pm -14.2 -26.1 -26.3 35 - ESE 43 54 23 29 990.5 990.7 -
02/03:30pm -14.0 -25.9 -25.2 38 - SE 43 54 23 29 990.3 - -
02/03:00pm -14.8 -26.0 -25.3 40 - SE 39 52 21 28 990.6 - -
02/02:30pm -14.9 -26.1 -25.4 40 - SE 39 52 21 28 990.4 - -
02/02:00pm -14.2 -27.5 -26.6 34 - SE 50 63 27 34 989.9 - -
02/01:48pm -14.5 -25.3 -25.4 39 - SSE 37 61 20 33 990.2 - -
02/01:43pm -15.0 -25.0 -26.4 37 - SSE 33 37 18 20 990.2 - -
02/01:30pm -14.7 -25.5 -25.8 38 - SE 37 48 20 26 990.2 - -
02/01:00pm -14.7 -26.8 -26.7 35 - SSE 44 50 24 27 989.6 989.8 -
02/12:30pm -15.2 -28.5 -27.5 34 - SSE 50 61 27 33 989.6 - -
02/12:00pm -14.9 -28.9 -26.9 35 - SSE 54 61 29 33 989.3 - -
02/11:30am -15.0 -29.6 -27.6 33 - SSE 57 63 31 34 989.3 - -
02/11:00am -15.2 -29.6 -27.5 34 - SSE 56 65 30 35 989.1 - -
02/10:30am -15.5 -29.9 -28.1 33 - SSE 56 65 30 35 988.8 - -
02/10:00am -15.3 -29.7 -27.9 33 - SSE 56 61 30 33 989.0 989.2 -
02/09:30am -14.8 -26.9 -27.1 34 - SSE 44 54 24 29 989.1 - -
02/09:15am -12.8 -24.4 -27.4 28 - SSE 41 50 22 27 989.4 - -
02/09:00am -13.2 -27.2 -26.3 32 - ESE 54 61 29 33 988.6 - -
02/08:59am -13.1 -27.1 -26.3 32 - ESE 54 61 29 33 988.6 - -
02/08:30am -13.4 -28.0 -25.9 34 - SSE 57 70 31 38 988.6 - -
02/08:00am -15.0 -30.0 -27.6 33 - SSE 59 70 32 38 988.1 - -
02/07:30am -14.9 -30.7 -27.5 33 - SSE 63 72 34 39 987.9 - -
02/07:00am -15.4 -31.5 -28.0 33 - SSE 65 76 35 41 987.7 987.9 -
02/06:30am -15.6 -31.0 -28.1 33 - SSE 61 70 33 38 988.0 - -
02/06:00am -15.4 -30.4 -27.6 34 - SSE 59 69 32 37 988.1 - -
02/05:30am -15.2 -28.5 -27.2 35 - SSE 50 59 27 32 988.7 - -
02/05:22am -15.0 -27.9 -26.4 37 - SSE 48 54 26 29 988.6 - -
02/05:00am -13.9 -28.3 -26.3 34 - SE 56 72 30 39 988.1 - -
02/04:56am -14.1 -28.1 -26.8 33 - SE 54 72 29 39 988.1 - -
02/04:30am -13.8 -29.9 -27.2 31 - SE 65 78 35 42 987.9 - -
02/04:00am -13.5 -30.6 -27.7 29 - SE 70 83 38 45 987.4 987.6 -
02/03:41am -12.8 -29.0 -28.2 26 - SE 65 83 35 45 987.5 - -
02/03:30am -12.7 -28.1 -27.3 28 - SE 61 74 33 40 987.9 - -
02/03:00am -13.0 -29.2 -28.4 26 - SE 65 78 35 42 987.8 - -
02/02:34am -13.7 -29.1 -27.8 29 - SE 61 80 33 43 988.1 - -
02/02:30am -13.3 -29.8 -27.1 30 - SE 67 80 36 43 988.0 - -
02/02:11am -13.4 -27.1 -27.6 29 - SE 52 72 28 39 988.4 - -
02/02:00am -14.3 -30.1 -27.7 31 - SE 63 76 34 41 988.5 - -
02/01:44am -12.9 -27.0 -28.7 25 - SE 54 72 29 39 988.2 - -
02/01:30am -13.5 -28.9 -28.0 28 - SE 61 78 33 42 988.6 - -
02/01:21am -12.7 -27.1 -28.6 25 - SE 56 78 30 42 988.3 - -
02/01:00am -14.6 -30.4 -28.6 29 - SE 63 74 34 40 988.4 988.6 -
02/12:30am -13.7 -28.3 -28.6 27 - SE 57 80 31 43 988.6 - -
02/12:02am -13.6 -28.6 -28.5 27 - SE 59 80 32 43 988.5 - -
02/12:00am -14.0 -28.6 -28.1 29 - SE 57 70 31 38 988.7 - -
 
Date/Time
EST
Temp
°C
App
Temp
°C
Dew
Point
Rel
Hum
%
Delta-T
°C
Wind Press
QNH
hPa
Press
MSL
hPa
Rain
since 9 am
mm
Dir
 
Spd
km/h
Gust
km/h
Spd
kts
Gust
kts
01/11:30pm -13.2 -27.3 -29.0 25 - SE 54 69 29 37 988.6 - -
01/11:03pm -14.2 -28.8 -27.9 30 - SE 57 76 31 41 989.0 - -
01/11:00pm -14.3 -29.7 -27.7 31 - SE 61 76 33 41 988.9 - -
01/10:37pm -13.6 -30.1 -28.5 27 - SE 67 85 36 46 988.6 - -
01/10:30pm -13.5 -28.9 -28.4 27 - SE 61 74 33 40 988.8 - -
01/10:07pm -14.1 -28.7 -27.5 31 - SE 57 76 31 41 988.9 - -
01/10:00pm -14.6 -30.0 -27.6 32 - SE 61 76 33 41 988.7 988.9 -
01/09:52pm -13.3 -27.4 -27.9 28 - SE 54 74 29 40 988.8 - -
01/09:30pm -13.8 -28.8 -27.2 31 - SE 59 72 32 39 988.7 - -
01/09:00pm -14.7 -30.4 -26.7 35 - SE 63 74 34 40 988.6 - -
01/08:30pm -14.0 -29.0 -27.4 31 - SE 59 70 32 38 988.4 - -
01/08:00pm -13.8 -29.6 -27.2 31 - SE 63 80 34 43 988.1 - -
01/07:59pm -13.9 -29.3 -27.0 32 - SE 61 80 33 43 988.0 - -
01/07:30pm -14.3 -30.4 -26.7 34 - SE 65 78 35 42 988.2 - -
01/07:00pm -15.3 -32.4 -26.1 39 - SE 70 83 38 45 988.1 988.3 -
01/06:30pm -14.0 -30.1 -26.7 33 - SE 65 80 35 43 988.3 - -
01/06:00pm -15.5 -31.2 -26.0 40 - SE 63 76 34 41 988.6 - -
01/05:30pm -15.4 -30.8 -26.7 37 - SE 61 74 33 40 988.5 - -
01/05:19pm -15.6 -32.1 -26.6 38 - SE 67 85 36 46 988.4 - -
01/05:00pm -15.7 -32.2 -27.0 37 - SE 67 80 36 43 988.5 - -
01/04:30pm -15.5 -30.9 -27.1 36 - SE 61 76 33 41 989.0 - -
01/04:00pm -15.5 -30.5 -27.4 35 - SE 59 72 32 39 989.3 989.5 -
01/03:30pm -17.1 -31.5 -27.7 39 - SE 56 69 30 37 989.8 - -
01/03:00pm -17.2 -31.8 -27.8 39 - SE 57 67 31 36 989.7 - -
01/02:30pm -16.8 -32.6 -28.6 35 - SE 63 74 34 40 989.6 - -
01/02:00pm -17.5 -32.5 -27.8 40 - SE 59 72 32 39 989.9 - -
01/01:30pm -17.7 -32.7 -28.0 40 - SE 59 74 32 40 990.2 - -
01/01:00pm -18.2 -34.4 -28.4 40 - SE 65 76 35 41 990.2 990.4 -
01/12:30pm -17.9 -33.3 -28.4 39 - SE 61 72 33 39 990.7 - -
01/12:06pm -18.0 -32.6 -28.3 40 - SE 57 78 31 42 990.6 - -
01/12:00pm -18.5 -32.9 -28.2 42 - SE 56 65 30 35 990.9 - -
01/11:30am -18.8 -35.0 -29.0 40 - SE 65 80 35 43 990.9 - -
01/11:00am -19.3 -35.5 -29.2 41 - SE 65 80 35 43 991.0 - -
01/10:30am -19.3 -35.1 -29.7 39 - SE 63 76 34 41 991.4 - -
01/10:00am -19.8 -35.6 -29.9 40 - SE 63 76 34 41 991.5 991.7 -
01/09:30am -19.8 -35.6 -29.9 40 - SE 63 74 34 40 991.6 - -
01/09:00am -19.6 -35.4 -30.2 38 - SE 63 74 34 40 991.7 - -
01/08:30am -20.0 -35.0 -30.3 39 - SE 59 69 32 37 991.9 - -
01/08:00am -20.1 -34.8 -30.2 40 - SE 57 67 31 36 991.9 - -
01/07:30am -20.2 -34.7 -30.5 39 - SE 56 69 30 37 992.1 - -
01/07:00am -20.8 -36.6 -30.5 41 - SE 63 76 34 41 992.5 992.7 -
01/06:30am -20.8 -34.9 -30.8 40 - SE 54 67 29 36 992.8 - -
01/06:00am -20.8 -36.6 -31.1 39 - SE 63 76 34 41 993.4 - -
01/05:36am -20.7 -35.4 -31.5 37 - SE 57 78 31 42 993.3 - -
01/05:30am -21.1 -35.2 -31.6 38 - SE 54 65 29 35 993.5 - -
01/05:00am -21.6 -36.3 -31.5 40 - SE 57 67 31 36 993.7 - -
01/04:30am -22.1 -36.8 -32.2 40 - SE 57 67 31 36 994.2 - -
01/04:00am -22.2 -36.3 -32.6 38 - SE 54 63 29 34 994.3 994.5 -
01/03:49am -22.5 -34.2 -32.6 39 - SE 41 59 22 32 995.1 - -
01/03:30am -21.9 -32.8 -32.1 39 - ESE 37 46 20 25 995.5 - -
01/03:13am -21.7 -33.0 -33.0 35 - ESE 39 57 21 31 995.7 - -
01/03:00am -21.7 -34.3 -32.7 36 - ESE 46 56 25 30 995.7 - -
01/02:30am -21.9 -32.8 -33.5 34 - ESE 37 52 20 28 996.1 - -
01/02:00am -21.6 -33.6 -33.5 33 - ESE 43 54 23 29 996.2 - -
01/01:30am -22.0 -32.9 -33.9 33 - ESE 37 50 20 27 996.7 - -
01/01:00am -22.9 -34.2 -33.2 38 - ESE 39 50 21 27 997.0 997.2 -
01/12:30am -22.5 -34.2 -34.0 34 - ESE 41 56 22 30 997.1 - -
01/12:00am -23.4 -36.4 -33.7 38 - SE 48 56 26 30 997.3 - -
 
Date/Time
EST
Temp
°C
App
Temp
°C
Dew
Point
Rel
Hum
%
Delta-T
°C
Wind Press
QNH
hPa
Press
MSL
hPa
Rain
since 9 am
mm
Dir
 
Spd
km/h
Gust
km/h
Spd
kts
Gust
kts
31/11:30pm -23.9 -36.1 -33.6 40 - SE 44 56 24 30 997.9 - -
31/11:00pm -23.7 -35.8 -33.7 39 - SE 43 50 23 27 997.9 - -
31/10:30pm -23.7 -35.7 -32.7 43 - SE 43 50 23 27 998.2 - -
31/10:00pm -23.2 -35.4 -32.7 41 - SE 44 50 24 27 998.3 998.5 -
31/09:30pm -22.7 -34.7 -32.5 40 - SE 43 48 23 26 998.6 - -
31/09:00pm -22.6 -32.5 -32.2 41 - SE 32 41 17 22 999.0 - -
31/08:30pm -22.5 -34.1 -31.6 43 - SE 41 46 22 25 998.9 - -
31/08:00pm -21.7 -33.0 -32.4 37 - SE 39 48 21 26 998.9 - -
31/07:30pm -22.0 -34.0 -31.1 44 - SE 43 52 23 28 999.0 - -
31/07:00pm -22.0 -34.6 -32.1 40 - SE 46 56 25 30 999.0 999.2 -
31/06:30pm -22.0 -35.0 -31.6 41 - SE 48 56 26 30 998.8 - -
31/06:00pm -22.0 -35.7 -32.7 37 - SE 52 63 28 34 998.9 - -
31/05:30pm -21.9 -36.4 -32.6 37 - SE 56 65 30 35 998.7 - -
31/05:00pm -21.3 -35.4 -33.5 32 - SE 54 65 29 35 998.6 - -
31/04:30pm -21.2 -35.3 -33.1 33 - SE 54 61 29 33 998.8 - -
31/04:00pm -22.0 -36.5 -33.5 35 - SE 56 63 30 34 999.0 999.2 -
31/03:30pm -22.4 -36.9 -33.9 34 - SE 56 61 30 33 999.1 - -
31/03:00pm -22.0 -36.1 -34.2 32 - SE 54 65 29 35 999.4 - -
31/02:30pm -21.8 -34.0 -33.4 34 - SE 44 56 24 30 999.9 - -
31/02:00pm -22.2 -35.6 -34.0 33 - SE 50 57 27 31 999.7 - -
31/01:30pm -21.9 -34.5 -33.8 33 - SE 46 54 25 29 999.9 - -
31/01:00pm -22.1 -35.1 -33.6 34 - SE 48 57 26 31 1000.0 1000.2 -
31/12:30pm -21.7 -34.7 -33.9 32 - SE 48 56 26 30 1000.0 - -
31/12:00pm -21.6 -34.2 -34.1 31 - SE 46 56 25 30 1000.1 - -
31/11:30am -21.8 -34.8 -34.3 31 - SE 48 57 26 31 1000.4 - -
31/11:00am -22.2 -35.6 -33.7 34 - SE 50 56 27 30 1000.1 - -
31/10:30am -21.9 -34.1 -33.2 35 - SE 44 52 24 28 1000.4 - -
31/10:00am -22.1 -35.5 -33.1 36 - SE 50 57 27 31 1000.2 1000.4 -
31/09:30am -22.5 -36.3 -33.4 36 - SE 52 59 28 32 1000.3 - -
31/09:00am -22.7 -35.3 -32.8 39 - SE 46 54 25 29 1000.3 - -
31/08:30am -23.1 -36.5 -33.4 38 - SE 50 56 27 30 1000.2 - -
31/08:00am -23.4 -36.8 -34.0 37 - SE 50 59 27 32 1000.2 - -
31/07:30am -22.5 -35.9 -32.9 38 - SE 50 59 27 32 1000.2 - -
31/07:00am -21.5 -34.1 -33.1 34 - SE 46 54 25 29 1000.4 1000.6 -
31/06:30am -22.7 -35.7 -33.0 39 - SE 48 57 26 31 1000.3 - -
31/06:00am -23.0 -35.2 -32.5 42 - SE 44 52 24 28 1000.2 - -
31/05:30am -23.1 -36.5 -32.6 42 - SE 50 57 27 31 1000.0 - -
31/05:00am -21.8 -35.9 -32.5 37 - SE 54 63 29 34 999.8 - -
31/04:30am -22.1 -36.8 -32.8 37 - SE 57 63 31 34 999.4 - -
31/04:21am -21.9 -36.6 -32.6 37 - SE 57 63 31 34 999.3 - -
31/04:02am -21.7 -32.6 -32.4 37 - ESE 37 56 20 30 999.8 - -
31/04:00am -21.8 -32.3 -32.2 38 - ESE 35 43 19 23 999.9 1000.1 -
31/03:30am -20.9 -32.9 -32.0 36 - ESE 43 48 23 26 999.7 - -
31/03:00am -21.5 -32.4 -33.1 34 - ESE 37 48 20 26 999.7 - -
31/02:30am -21.4 -33.4 -32.4 36 - ESE 43 52 23 28 999.6 - -
31/02:09am -21.1 -30.7 -31.9 37 - ESE 30 46 16 25 999.5 - -

Other Formats:

Comma delimited format used in spreadsheet applications
http://www.bom.gov.au/fwo/IDT60803/IDT60803.89564.axf

JavaScript Object Notation format (JSON) in row-major order
http://www.bom.gov.au/fwo/IDT60803/IDT60803.89564.json